Time;durP1;ratioP1;P1;durP2;ratioP2;P2;SDS_P1;SDS_P2;PMS_P1;PMS_P2;Temp;Humidity;BMP_temperature;BMP_pressure;BME280_temperature;BME280_humidity;BME280_pressure;Samples;Min_cycle;Max_cycle;Signal;HPM_P1;HPM_P2
2023/07/06 00:01:56;;;;;;;3.28;2.20;;;20.90;74.00;;;;;;4997556;28;20085;-66
2023/07/06 00:04:22;;;;;;;3.17;2.05;;;20.90;74.30;;;;;;4998047;28;20085;-66
2023/07/06 00:06:49;;;;;;;3.78;1.73;;;20.80;74.60;;;;;;4998986;28;20022;-66
2023/07/06 00:09:16;;;;;;;3.20;1.85;;;20.70;74.40;;;;;;4998963;28;20352;-66
2023/07/06 00:11:44;;;;;;;5.07;2.40;;;20.70;75.00;;;;;;4999191;28;20563;-66
2023/07/06 00:14:11;;;;;;;2.40;1.83;;;20.60;75.00;;;;;;4998632;28;20459;-66
2023/07/06 00:16:41;;;;;;;2.15;1.73;;;20.60;75.00;;;;;;5014194;28;20381;-66
2023/07/06 00:19:08;;;;;;;2.90;1.90;;;20.60;75.10;;;;;;4999008;28;20058;-66
2023/07/06 00:21:34;;;;;;;4.07;1.70;;;20.60;74.90;;;;;;4997864;28;20046;-66
2023/07/06 00:24:00;;;;;;;2.83;1.70;;;20.50;74.80;;;;;;4998612;28;20026;-66
2023/07/06 00:26:27;;;;;;;1.95;1.73;;;20.40;74.90;;;;;;4998663;28;20521;-66
2023/07/06 00:28:55;;;;;;;1.95;1.63;;;20.40;74.80;;;;;;4998582;28;20325;-66
2023/07/06 00:31:31;;;;;;;4.13;1.90;;;20.40;74.70;;;;;;4998782;28;20026;-66
2023/07/06 00:34:04;;;;;;;3.92;2.10;;;20.50;75.20;;;;;;4998392;28;20157;-66
2023/07/06 00:36:32;;;;;;;2.03;1.80;;;20.40;75.10;;;;;;4998721;28;20026;-66
2023/07/06 00:39:01;;;;;;;3.97;1.65;;;20.40;75.20;;;;;;4998044;28;20026;-66
2023/07/06 00:41:28;;;;;;;2.22;1.70;;;20.40;75.20;;;;;;4998328;28;20023;-66
2023/07/06 00:43:55;;;;;;;2.08;1.45;;;20.30;74.90;;;;;;4998197;28;20081;-67
2023/07/06 00:46:25;;;;;;;3.97;2.05;;;20.30;75.20;;;;;;4998797;28;20372;-66
2023/07/06 00:48:53;;;;;;;2.83;1.65;;;20.20;75.10;;;;;;4998787;28;20031;-66
2023/07/06 00:51:27;;;;;;;2.17;1.55;;;20.20;75.10;;;;;;4998456;28;20088;-66
2023/07/06 00:54:01;;;;;;;1.48;1.10;;;20.20;75.00;;;;;;4998308;28;20129;-66
2023/07/06 00:56:32;;;;;;;2.15;1.52;;;20.20;75.10;;;;;;4998082;28;20037;-66
2023/07/06 00:59:03;;;;;;;3.10;1.55;;;20.20;75.10;;;;;;4997112;28;20027;-66
2023/07/06 01:01:32;;;;;;;5.25;1.70;;;20.20;75.10;;;;;;4998283;28;20034;-66
2023/07/06 01:03:59;;;;;;;1.92;1.70;;;20.20;75.20;;;;;;4998140;28;20030;-66
2023/07/06 01:06:39;;;;;;;3.83;1.50;;;20.10;75.30;;;;;;4998425;28;20041;-67
2023/07/06 01:09:07;;;;;;;2.53;1.48;;;20.10;75.30;;;;;;4998356;28;20027;-67
2023/07/06 01:11:37;;;;;;;3.95;1.73;;;20.00;75.40;;;;;;4997983;28;20030;-66
2023/07/06 01:14:03;;;;;;;2.33;1.40;;;20.00;75.50;;;;;;4996002;28;20044;-67
2023/07/06 01:16:32;;;;;;;2.80;1.70;;;20.00;75.50;;;;;;4997766;28;20418;-66
2023/07/06 01:19:22;;;;;;;1.75;1.40;;;20.10;75.60;;;;;;4997702;28;20027;-66
2023/07/06 01:22:17;;;;;;;2.70;1.50;;;20.00;75.50;;;;;;4997975;28;20095;-67
2023/07/06 01:25:04;;;;;;;4.40;2.20;;;20.10;75.60;;;;;;4997513;28;20042;-67
2023/07/06 01:27:39;;;;;;;3.40;2.00;;;20.00;75.70;;;;;;4997851;28;20026;-67
2023/07/06 01:30:24;;;;;;;2.00;1.60;;;20.00;75.40;;;;;;4997815;28;20109;-67
2023/07/06 01:32:59;;;;;;;3.80;1.60;;;20.00;75.60;;;;;;4997671;28;20045;-67
2023/07/06 01:35:27;;;;;;;1.70;1.55;;;20.00;75.40;;;;;;4997608;28;20077;-67
2023/07/06 01:37:53;;;;;;;3.38;1.77;;;19.90;75.50;;;;;;4997511;28;20426;-67
2023/07/06 01:40:19;;;;;;;4.32;1.50;;;19.90;75.50;;;;;;4996430;28;20041;-67
2023/07/06 01:42:45;;;;;;;2.03;1.70;;;19.90;75.60;;;;;;4997239;28;20407;-67
2023/07/06 01:45:18;;;;;;;3.47;1.88;;;19.90;75.50;;;;;;4997108;28;20031;-67
2023/07/06 01:47:55;;;;;;;2.67;1.67;;;19.90;75.60;;;;;;4997701;28;20045;-67
2023/07/06 01:50:38;;;;;;;2.90;1.60;;;19.90;75.70;;;;;;4997374;28;20034;-67
2023/07/06 01:53:12;;;;;;;1.83;1.73;;;19.90;75.70;;;;;;4997052;28;20464;-67
2023/07/06 01:55:53;;;;;;;4.38;1.75;;;19.90;75.60;;;;;;4996813;28;20403;-67
2023/07/06 01:58:29;;;;;;;2.70;1.90;;;19.90;75.70;;;;;;4996946;28;20026;-67
2023/07/06 02:01:04;;;;;;;3.28;2.05;;;19.90;75.70;;;;;;4996854;28;20030;-67
2023/07/06 02:03:30;;;;;;;2.15;1.65;;;19.90;75.60;;;;;;4997368;28;20054;-67
2023/07/06 02:05:57;;;;;;;3.03;1.80;;;19.90;75.70;;;;;;4996804;28;20033;-67
2023/07/06 02:08:23;;;;;;;3.30;1.75;;;19.90;75.70;;;;;;4997274;28;20022;-67
2023/07/06 02:10:50;;;;;;;3.03;2.10;;;19.90;75.60;;;;;;4996609;28;20038;-67
2023/07/06 02:13:17;;;;;;;2.88;2.40;;;19.90;75.60;;;;;;4996603;28;20474;-67
2023/07/06 02:15:43;;;;;;;2.25;1.90;;;19.90;75.50;;;;;;4996456;28;20038;-67
2023/07/06 02:18:09;;;;;;;3.70;1.80;;;19.80;75.30;;;;;;4996828;28;20027;-67
2023/07/06 02:20:35;;;;;;;3.53;1.67;;;19.90;75.20;;;;;;4996550;28;20321;-67
2023/07/06 02:23:01;;;;;;;6.03;1.77;;;19.80;75.00;;;;;;4996493;28;20023;-67
2023/07/06 02:25:27;;;;;;;3.63;2.08;;;19.80;74.90;;;;;;4995995;28;20042;-67
2023/07/06 02:27:53;;;;;;;2.83;2.15;;;19.80;74.90;;;;;;4996355;28;20022;-67
2023/07/06 02:30:19;;;;;;;7.15;2.08;;;19.70;74.90;;;;;;4996624;28;20029;-67
2023/07/06 02:32:46;;;;;;;2.53;1.75;;;19.70;74.90;;;;;;4996365;28;20137;-67
2023/07/06 02:35:12;;;;;;;3.00;1.90;;;19.60;74.80;;;;;;4996030;28;20062;-68
2023/07/06 02:37:39;;;;;;;3.10;1.98;;;19.70;74.80;;;;;;4996238;28;20026;-67
2023/07/06 02:40:10;;;;;;;3.38;2.00;;;19.60;74.70;;;;;;4996178;28;20444;-67
2023/07/06 02:42:37;;;;;;;1.70;1.60;;;19.60;74.60;;;;;;4996483;28;20038;-67
2023/07/06 02:45:05;;;;;;;3.72;1.70;;;19.50;74.50;;;;;;4996569;28;20093;-67
2023/07/06 02:47:31;;;;;;;3.78;1.75;;;19.50;74.60;;;;;;4996360;28;20030;-67
2023/07/06 02:49:58;;;;;;;2.35;1.55;;;19.40;74.60;;;;;;4996319;28;20109;-67
2023/07/06 02:52:24;;;;;;;3.45;1.50;;;19.40;74.70;;;;;;4996287;28;20432;-67
2023/07/06 02:54:52;;;;;;;2.15;1.70;;;19.40;74.80;;;;;;4995809;28;20038;-67
2023/07/06 02:57:18;;;;;;;4.10;1.80;;;19.40;74.80;;;;;;4996226;28;20440;-67
2023/07/06 02:59:44;;;;;;;1.70;1.35;;;19.40;75.00;;;;;;4995933;28;20109;-67
2023/07/06 03:02:10;;;;;;;2.00;1.75;;;19.40;75.00;;;;;;4995851;28;20348;-67
2023/07/06 03:04:36;;;;;;;4.28;1.63;;;19.30;75.10;;;;;;4995814;28;20037;-66
2023/07/06 03:07:02;;;;;;;1.95;1.50;;;19.30;75.30;;;;;;4996132;28;20019;-67
2023/07/06 03:09:28;;;;;;;3.63;1.50;;;19.30;75.40;;;;;;4995892;28;20034;-67
2023/07/06 03:11:53;;;;;;;1.85;1.45;;;19.20;75.40;;;;;;4996337;28;20331;-67
2023/07/06 03:14:25;;;;;;;3.55;1.55;;;19.20;75.50;;;;;;4995964;28;20070;-67
2023/07/06 03:16:53;;;;;;;2.50;1.55;;;19.20;75.60;;;;;;4995767;28;20023;-68
2023/07/06 03:19:20;;;;;;;2.50;1.50;;;19.20;75.70;;;;;;4996002;28;20026;-67
2023/07/06 03:21:47;;;;;;;2.65;1.60;;;19.20;75.80;;;;;;4996017;28;20023;-67
2023/07/06 03:24:13;;;;;;;2.60;1.92;;;19.20;75.80;;;;;;4996149;28;20034;-67
2023/07/06 03:26:41;;;;;;;2.85;1.75;;;19.20;75.80;;;;;;4995660;28;20498;-67
2023/07/06 03:29:08;;;;;;;1.92;1.80;;;19.20;75.90;;;;;;4995680;28;20102;-67
2023/07/06 03:31:35;;;;;;;2.22;2.00;;;19.20;76.00;;;;;;4995625;28;20085;-66
2023/07/06 03:34:02;;;;;;;4.30;2.30;;;19.30;76.10;;;;;;4995683;28;20038;-67
2023/07/06 03:36:30;;;;;;;3.60;1.95;;;19.30;76.00;;;;;;4997587;28;20069;-67
2023/07/06 03:38:57;;;;;;;2.90;2.42;;;19.30;75.90;;;;;;4999811;28;20030;-67
2023/07/06 03:41:23;;;;;;;2.33;2.10;;;19.30;76.00;;;;;;4999437;28;20022;-67
2023/07/06 03:43:49;;;;;;;3.90;1.67;;;19.40;75.70;;;;;;4999350;28;20081;-67
2023/07/06 03:46:14;;;;;;;2.50;1.80;;;19.40;75.60;;;;;;4999698;28;20022;-67
2023/07/06 03:48:41;;;;;;;3.15;2.20;;;19.40;75.60;;;;;;4999641;28;20030;-67
2023/07/06 03:51:07;;;;;;;4.30;2.13;;;19.40;75.50;;;;;;4999315;28;20475;-67
2023/07/06 03:53:36;;;;;;;3.13;1.98;;;19.40;75.30;;;;;;4982014;28;20026;-67
2023/07/06 03:56:03;;;;;;;2.88;2.00;;;19.50;75.30;;;;;;4999214;28;20449;-67
2023/07/06 03:58:29;;;;;;;2.75;2.10;;;19.50;75.10;;;;;;4999132;28;20025;-67
2023/07/06 04:00:58;;;;;;;3.53;2.40;;;19.50;75.10;;;;;;4999687;28;20026;-67
2023/07/06 04:03:26;;;;;;;3.63;1.80;;;19.60;75.00;;;;;;4999318;28;20097;-67
2023/07/06 04:05:53;;;;;;;3.40;1.90;;;19.60;74.80;;;;;;4999110;28;20034;-67
2023/07/06 04:08:22;;;;;;;3.40;2.20;;;19.70;74.60;;;;;;4999279;28;20026;-67
2023/07/06 04:10:48;;;;;;;5.07;2.50;;;19.70;74.60;;;;;;4998914;28;20034;-67
2023/07/06 04:13:14;;;;;;;3.92;2.30;;;19.70;74.70;;;;;;4999426;28;20030;-66
2023/07/06 04:15:44;;;;;;;3.42;2.10;;;19.70;74.60;;;;;;4998617;28;20069;-66
2023/07/06 04:18:10;;;;;;;2.83;2.30;;;19.80;74.50;;;;;;4998960;28;20037;-67
2023/07/06 04:20:36;;;;;;;3.20;2.33;;;19.90;74.50;;;;;;4999024;28;20114;-68
2023/07/06 04:23:04;;;;;;;4.22;2.40;;;19.90;74.30;;;;;;4998973;28;20026;-67
2023/07/06 04:25:32;;;;;;;5.75;2.15;;;20.00;74.20;;;;;;4998613;28;20118;-67
2023/07/06 04:28:03;;;;;;;5.60;2.40;;;20.10;73.90;;;;;;4998888;28;20022;-67
2023/07/06 04:30:33;;;;;;;2.78;2.10;;;20.20;73.70;;;;;;4998591;28;20034;-65
2023/07/06 04:33:00;;;;;;;3.30;2.05;;;20.40;73.40;;;;;;4998506;28;20527;-68
2023/07/06 04:35:26;;;;;;;4.88;2.40;;;20.60;73.20;;;;;;4998111;28;20053;-66
2023/07/06 04:37:53;;;;;;;2.80;2.03;;;20.80;72.80;;;;;;4998713;28;20072;-66
2023/07/06 04:40:20;;;;;;;3.22;1.88;;;20.90;72.60;;;;;;4998893;28;20037;-66
2023/07/06 04:42:56;;;;;;;4.00;2.00;;;21.20;72.30;;;;;;4998286;28;20018;-66
2023/07/06 04:45:25;;;;;;;2.72;1.70;;;21.30;72.00;;;;;;4998408;28;20498;-67
2023/07/06 04:47:53;;;;;;;3.88;2.00;;;21.40;71.50;;;;;;4997879;28;20031;-66
2023/07/06 04:50:23;;;;;;;2.35;1.70;;;21.50;71.40;;;;;;4998423;28;20109;-66
2023/07/06 04:52:56;;;;;;;2.15;1.95;;;21.60;71.20;;;;;;4998688;28;20026;-67
2023/07/06 04:55:24;;;;;;;3.22;2.00;;;21.70;71.00;;;;;;4998499;28;20053;-66
2023/07/06 04:57:54;;;;;;;2.45;1.85;;;21.90;70.90;;;;;;4998040;28;20042;-66
2023/07/06 05:00:24;;;;;;;5.50;2.40;;;22.40;70.80;;;;;;4998025;28;20022;-66
2023/07/06 05:03:06;;;;;;;3.15;1.70;;;23.20;70.00;;;;;;4998015;28;20058;-65
2023/07/06 05:05:45;;;;;;;3.17;1.80;;;24.10;67.80;;;;;;4997801;28;20088;-68
2023/07/06 05:08:15;;;;;;;2.47;1.90;;;24.70;66.30;;;;;;4997912;28;20057;-66
2023/07/06 05:10:47;;;;;;;4.68;1.88;;;25.30;64.50;;;;;;4997841;28;20033;-66
2023/07/06 05:13:14;;;;;;;3.05;1.83;;;25.30;63.20;;;;;;4998371;28;20332;-66
2023/07/06 05:15:40;;;;;;;3.70;1.85;;;25.00;62.80;;;;;;4997668;28;20029;-67
2023/07/06 05:18:06;;;;;;;3.28;2.10;;;24.60;62.30;;;;;;4997772;28;20030;-66
2023/07/06 05:20:33;;;;;;;4.15;1.70;;;24.30;63.10;;;;;;4998198;28;20025;-66
2023/07/06 05:22:59;;;;;;;2.92;1.77;;;24.00;63.70;;;;;;4997679;28;20034;-66
2023/07/06 05:25:26;;;;;;;3.05;1.70;;;23.70;63.90;;;;;;4996566;28;20034;-66
2023/07/06 05:27:52;;;;;;;3.25;1.95;;;23.40;64.50;;;;;;4997811;28;20031;-66
2023/07/06 05:30:19;;;;;;;3.65;1.88;;;23.20;65.00;;;;;;4997495;28;20100;-65
2023/07/06 05:32:45;;;;;;;3.03;2.03;;;23.10;65.40;;;;;;4997707;28;20030;-66
2023/07/06 05:35:13;;;;;;;3.20;1.90;;;23.00;65.60;;;;;;4997139;28;20053;-66
2023/07/06 05:37:41;;;;;;;3.35;1.60;;;22.90;65.60;;;;;;4997553;28;20356;-66
2023/07/06 05:40:09;;;;;;;1.83;1.45;;;22.90;65.90;;;;;;4997819;28;20109;-66
2023/07/06 05:42:35;;;;;;;2.35;1.77;;;22.80;66.20;;;;;;4997177;28;20033;-66
2023/07/06 05:45:01;;;;;;;4.13;1.92;;;22.80;66.40;;;;;;4997248;28;20113;-66
2023/07/06 05:47:27;;;;;;;2.78;2.03;;;22.70;66.70;;;;;;4997153;28;20097;-66
2023/07/06 05:49:54;;;;;;;5.22;2.05;;;22.70;66.80;;;;;;4997055;28;20048;-66
2023/07/06 05:52:20;;;;;;;5.68;2.38;;;22.70;66.80;;;;;;4997353;28;20027;-66
2023/07/06 05:54:46;;;;;;;2.03;1.83;;;22.60;66.40;;;;;;4996908;28;20034;-66
2023/07/06 05:57:16;;;;;;;2.40;1.50;;;22.60;66.40;;;;;;4997516;28;20098;-66
2023/07/06 05:59:43;;;;;;;3.67;1.80;;;22.50;66.70;;;;;;4996215;28;20030;-66
2023/07/06 06:02:12;;;;;;;3.45;2.05;;;22.50;66.90;;;;;;4997126;28;20029;-66
2023/07/06 06:04:40;;;;;;;4.88;2.00;;;22.40;67.10;;;;;;4996984;28;20073;-67
2023/07/06 06:07:06;;;;;;;3.67;2.03;;;22.30;67.30;;;;;;4996826;28;20052;-67
2023/07/06 06:09:33;;;;;;;4.75;2.17;;;22.20;67.30;;;;;;4997295;28;20050;-66
2023/07/06 06:12:00;;;;;;;2.88;1.77;;;22.20;67.40;;;;;;4997241;28;20034;-66
2023/07/06 06:14:27;;;;;;;2.83;1.85;;;22.10;67.50;;;;;;4996536;28;20053;-66
2023/07/06 06:16:53;;;;;;;2.00;1.73;;;22.10;66.70;;;;;;4996898;28;20130;-66
2023/07/06 06:19:20;;;;;;;1.67;1.55;;;22.10;67.00;;;;;;4996845;28;20129;-67
2023/07/06 06:21:49;;;;;;;4.53;1.92;;;22.00;66.80;;;;;;4996803;28;20023;-67
2023/07/06 06:24:15;;;;;;;3.80;1.98;;;22.00;67.10;;;;;;4996408;28;20125;-66
2023/07/06 06:26:42;;;;;;;2.28;1.67;;;22.00;67.00;;;;;;4996686;28;20030;-66
2023/07/06 06:29:09;;;;;;;3.38;1.80;;;22.00;67.10;;;;;;4996354;28;20031;-66
2023/07/06 06:31:42;;;;;;;4.57;1.90;;;22.00;67.00;;;;;;4996346;28;20022;-66
2023/07/06 06:34:10;;;;;;;3.92;1.85;;;21.90;66.70;;;;;;4995035;28;20034;-66
2023/07/06 06:36:36;;;;;;;4.07;2.00;;;21.90;67.10;;;;;;4996536;28;20023;-66
2023/07/06 06:39:02;;;;;;;4.85;1.75;;;21.90;67.10;;;;;;4996497;28;20018;-67
2023/07/06 06:41:28;;;;;;;3.38;1.95;;;21.90;67.20;;;;;;4996457;28;20142;-67
2023/07/06 06:43:56;;;;;;;4.40;1.85;;;21.90;67.20;;;;;;4996107;28;20034;-66
2023/07/06 06:46:23;;;;;;;5.18;1.88;;;21.90;67.00;;;;;;5011527;28;20045;-67
2023/07/06 06:48:49;;;;;;;4.53;2.50;;;21.90;67.00;;;;;;4995990;28;20034;-67
2023/07/06 06:51:15;;;;;;;7.60;2.08;;;21.90;66.90;;;;;;4996022;28;20018;-66
2023/07/06 06:53:41;;;;;;;3.45;1.83;;;21.90;66.90;;;;;;4996401;28;20085;-66
2023/07/06 06:56:09;;;;;;;2.97;1.90;;;21.90;67.10;;;;;;4996484;28;20034;-67
2023/07/06 06:58:36;;;;;;;3.17;2.10;;;21.90;67.00;;;;;;4996187;28;20018;-67
2023/07/06 07:01:07;;;;;;;3.47;1.88;;;21.90;66.80;;;;;;4996394;28;20084;-67
2023/07/06 07:03:34;;;;;;;4.07;2.00;;;21.90;66.70;;;;;;4996020;28;20033;-66
2023/07/06 07:06:12;;;;;;;3.53;2.20;;;21.90;66.40;;;;;;4995842;28;20073;-66
2023/07/06 07:08:42;;;;;;;3.30;2.05;;;21.90;66.20;;;;;;4995853;28;20150;-66
2023/07/06 07:11:08;;;;;;;3.70;2.00;;;21.90;66.30;;;;;;4995970;28;20022;-66
2023/07/06 07:13:37;;;;;;;3.20;1.70;;;21.90;66.20;;;;;;4995602;28;20097;-66
2023/07/06 07:16:11;;;;;;;6.25;2.30;;;21.90;66.40;;;;;;4995671;28;20034;-66
2023/07/06 07:18:38;;;;;;;3.70;2.20;;;21.90;66.60;;;;;;4995669;28;20033;-67
2023/07/06 07:21:06;;;;;;;3.55;2.20;;;21.90;66.90;;;;;;4995671;28;20027;-66
2023/07/06 07:23:42;;;;;;;2.83;1.95;;;21.90;67.00;;;;;;4995585;28;20030;-66
2023/07/06 07:26:09;;;;;;;2.80;2.00;;;21.90;67.20;;;;;;4996177;28;20511;-66
2023/07/06 07:28:37;;;;;;;3.97;1.90;;;21.90;67.60;;;;;;4995876;28;20068;-66
2023/07/06 07:31:03;;;;;;;4.38;1.92;;;21.80;67.80;;;;;;4995539;28;20372;-66
2023/07/06 07:33:29;;;;;;;3.20;2.22;;;21.70;68.30;;;;;;4994576;28;20120;-66
2023/07/06 07:36:02;;;;;;;4.50;2.08;;;21.70;68.60;;;;;;4995368;28;20453;-66
2023/07/06 07:38:28;;;;;;;6.97;2.60;;;21.60;68.90;;;;;;4995385;28;20032;-66
2023/07/06 07:41:00;;;;;;;2.67;2.15;;;21.60;69.10;;;;;;4995561;28;20021;-67
2023/07/06 07:43:32;;;;;;;3.60;2.08;;;21.50;69.50;;;;;;4994489;28;20057;-67
2023/07/06 07:46:09;;;;;;;5.00;2.17;;;21.40;69.90;;;;;;4995937;28;20042;-66
2023/07/06 07:48:39;;;;;;;4.72;2.20;;;21.40;70.30;;;;;;4995367;28;20034;-67
2023/07/06 07:51:07;;;;;;;3.42;2.33;;;21.30;70.50;;;;;;4995863;28;20030;-67
2023/07/06 07:53:36;;;;;;;6.05;2.53;;;21.20;70.90;;;;;;4995190;28;20444;-66
2023/07/06 07:56:04;;;;;;;3.90;2.55;;;21.10;71.10;;;;;;4995511;28;20367;-67
2023/07/06 07:58:33;;;;;;;4.55;2.35;;;21.00;71.60;;;;;;4994582;28;20038;-67
2023/07/06 08:01:00;;;;;;;5.20;2.45;;;21.00;71.70;;;;;;4995173;28;20085;-66
2023/07/06 08:03:28;;;;;;;5.35;2.40;;;20.90;72.00;;;;;;4994291;28;20028;-66
2023/07/06 08:06:02;;;;;;;5.30;2.60;;;21.00;72.30;;;;;;4995067;28;20459;-66
2023/07/06 08:08:32;;;;;;;7.97;3.00;;;21.10;72.80;;;;;;4995444;28;20034;-67
2023/07/06 08:11:05;;;;;;;5.47;2.78;;;21.20;73.40;;;;;;4995303;28;20502;-67
2023/07/06 08:13:32;;;;;;;5.68;2.60;;;21.30;74.20;;;;;;4995694;28;20084;-67
2023/07/06 08:16:00;;;;;;;5.40;2.60;;;21.40;74.00;;;;;;4995228;28;20030;-67
2023/07/06 08:18:25;;;;;;;7.03;2.55;;;21.40;73.80;;;;;;4995292;28;20027;-66
2023/07/06 08:20:54;;;;;;;6.53;2.80;;;21.30;73.50;;;;;;5010352;28;20070;-66
2023/07/06 08:23:21;;;;;;;6.32;3.00;;;21.20;73.30;;;;;;4997741;28;20026;-66
2023/07/06 08:25:51;;;;;;;5.97;2.97;;;20.90;74.10;;;;;;4998671;28;20137;-67
2023/07/06 08:28:20;;;;;;;6.18;3.17;;;20.70;74.60;;;;;;5013869;28;20026;-67
2023/07/06 08:30:48;;;;;;;6.32;3.20;;;20.40;76.00;;;;;;4998466;28;20034;-67
2023/07/06 08:33:16;;;;;;;5.28;2.90;;;20.20;76.90;;;;;;4997305;28;20022;-67
2023/07/06 08:35:43;;;;;;;6.13;2.60;;;20.00;77.30;;;;;;4997110;28;20085;-67
2023/07/06 08:38:13;;;;;;;3.78;2.35;;;19.90;76.90;;;;;;4998568;28;20041;-67
2023/07/06 08:40:41;;;;;;;5.25;3.08;;;19.90;76.70;;;;;;5013613;28;20023;-67
2023/07/06 08:43:15;;;;;;;4.32;2.72;;;19.90;77.30;;;;;;4997902;28;20032;-67
2023/07/06 08:45:44;;;;;;;5.00;2.83;;;19.90;77.20;;;;;;4998063;28;20371;-67
2023/07/06 08:48:14;;;;;;;3.38;2.38;;;19.90;77.40;;;;;;4998209;28;20032;-67
2023/07/06 08:50:44;;;;;;;4.10;2.58;;;19.90;77.10;;;;;;4998447;28;20084;-67
2023/07/06 08:53:14;;;;;;;7.75;2.90;;;20.00;77.00;;;;;;4997271;28;20507;-67
2023/07/06 08:55:44;;;;;;;8.10;3.10;;;20.10;76.80;;;;;;4998181;28;20113;-68
2023/07/06 08:58:29;;;;;;;5.60;2.67;;;20.20;77.00;;;;;;4998275;28;20027;-68
2023/07/06 09:01:21;;;;;;;5.43;2.53;;;20.20;76.80;;;;;;4998511;28;20030;-67
2023/07/06 09:04:12;;;;;;;6.43;2.60;;;20.30;76.50;;;;;;4997724;28;20035;-67
2023/07/06 09:06:45;;;;;;;4.85;2.47;;;20.40;76.20;;;;;;4997279;28;20022;-68
2023/07/06 09:09:12;;;;;;;5.82;2.72;;;20.60;75.70;;;;;;4997890;28;20048;-68
2023/07/06 09:11:38;;;;;;;6.20;2.40;;;20.80;75.70;;;;;;5013114;28;20057;-68
2023/07/06 09:14:18;;;;;;;4.60;2.55;;;20.90;75.50;;;;;;4996700;28;20041;-68
2023/07/06 09:16:55;;;;;;;3.47;2.35;;;21.20;74.60;;;;;;4996970;28;20347;-68
2023/07/06 09:19:25;;;;;;;4.07;2.60;;;21.40;74.40;;;;;;4997783;28;20034;-67
2023/07/06 09:21:54;;;;;;;4.70;2.40;;;21.50;74.10;;;;;;4997928;28;20019;-67
2023/07/06 09:24:27;;;;;;;4.88;2.10;;;21.60;73.80;;;;;;4997782;28;20474;-65
2023/07/06 09:26:57;;;;;;;3.53;2.45;;;21.70;73.60;;;;;;4997283;28;20034;-67
2023/07/06 09:29:35;;;;;;;2.55;2.25;;;21.70;73.30;;;;;;4997783;28;20034;-67
2023/07/06 09:32:13;;;;;;;3.60;2.30;;;21.80;73.10;;;;;;4997401;28;20464;-68
2023/07/06 09:34:44;;;;;;;3.90;2.25;;;21.80;73.00;;;;;;4996105;28;20068;-68
2023/07/06 09:37:12;;;;;;;2.28;1.95;;;21.90;72.80;;;;;;4997634;28;20031;-67
2023/07/06 09:39:39;;;;;;;4.53;2.38;;;21.90;72.60;;;;;;4997494;28;20022;-67
2023/07/06 09:42:08;;;;;;;3.22;1.98;;;22.00;72.50;;;;;;4997780;28;20030;-67
2023/07/06 09:44:34;;;;;;;5.30;2.40;;;22.20;72.20;;;;;;4997025;28;20503;-68
2023/07/06 09:47:01;;;;;;;4.55;2.40;;;22.30;72.00;;;;;;4997143;28;20097;-67
2023/07/06 09:49:33;;;;;;;3.15;2.30;;;22.40;71.60;;;;;;4997586;28;20045;-67
2023/07/06 09:52:09;;;;;;;4.37;2.20;;;22.50;71.20;;;;;;4997560;28;20027;-66
2023/07/06 09:54:49;;;;;;;3.20;2.08;;;22.50;71.00;;;;;;4997101;28;20281;-66
2023/07/06 09:57:15;;;;;;;2.20;1.70;;;22.60;70.80;;;;;;4997185;28;20033;-66
2023/07/06 09:59:47;;;;;;;5.15;2.05;;;22.70;70.80;;;;;;4996852;28;20030;-67
2023/07/06 10:02:57;;;;;;;3.28;2.15;;;22.70;70.70;;;;;;4995892;28;20526;-67
2023/07/06 10:05:58;;;;;;;4.18;2.10;;;22.70;70.50;;;;;;4996161;28;20054;-67
2023/07/06 10:08:36;;;;;;;4.13;2.50;;;22.70;70.60;;;;;;4994925;28;20459;-67
2023/07/06 10:11:09;;;;;;;3.28;2.30;;;22.60;70.70;;;;;;4995251;28;20062;-67
2023/07/06 10:13:57;;;;;;;2.70;2.03;;;22.50;70.90;;;;;;4995047;28;20057;-67
2023/07/06 10:16:28;;;;;;;4.80;3.15;;;22.60;71.20;;;;;;4994856;28;20114;-67
2023/07/06 10:19:26;;;;;;;6.07;3.03;;;22.60;71.30;;;;;;4978600;28;20061;-67
2023/07/06 10:22:03;;;;;;;4.32;3.08;;;22.60;71.60;;;;;;4899076;29;20036;-67
2023/07/06 10:24:32;;;;;;;4.93;3.83;;;22.50;71.50;;;;;;4899085;29;20040;-67
2023/07/06 10:27:03;;;;;;;7.65;3.63;;;22.50;71.70;;;;;;4899680;29;20368;-67
2023/07/06 10:29:45;;;;;;;5.63;3.30;;;22.50;71.80;;;;;;4883277;29;20056;-67
2023/07/06 10:32:33;;;;;;;5.35;3.25;;;22.50;71.70;;;;;;4899266;29;20044;-67
2023/07/06 10:35:39;;;;;;;5.78;4.00;;;22.60;71.60;;;;;;4898359;29;20402;-67
2023/07/06 10:38:09;;;;;;;7.03;3.30;;;22.70;71.50;;;;;;4898019;29;20032;-67
2023/07/06 10:40:37;;;;;;;3.75;2.60;;;22.70;71.40;;;;;;4899055;29;20047;-67
2023/07/06 10:43:15;;;;;;;4.13;2.90;;;22.80;71.50;;;;;;4898665;29;20044;-67
2023/07/06 10:45:48;;;;;;;4.22;2.28;;;22.90;71.50;;;;;;4915036;29;20497;-67
2023/07/06 10:48:26;;;;;;;4.30;2.65;;;22.90;71.50;;;;;;4917608;29;20036;-67
2023/07/06 10:51:16;;;;;;;4.00;2.70;;;22.90;71.50;;;;;;4918049;29;20043;-67
2023/07/06 10:53:49;;;;;;;4.70;2.78;;;22.90;71.60;;;;;;4917326;29;20491;-66
2023/07/06 10:56:23;;;;;;;4.60;3.03;;;22.90;71.60;;;;;;4901945;29;20028;-66
2023/07/06 10:58:58;;;;;;;7.40;3.58;;;23.00;71.50;;;;;;4978121;28;20069;-66
2023/07/06 11:01:37;;;;;;;4.95;3.67;;;23.00;71.40;;;;;;4996434;28;20041;-66
2023/07/06 11:04:41;;;;;;;4.65;3.40;;;23.10;72.00;;;;;;4996140;28;20440;-67
2023/07/06 11:07:09;;;;;;;7.05;3.33;;;23.00;71.90;;;;;;4994907;28;20153;-66
2023/07/06 11:10:14;;;;;;;6.50;3.20;;;23.00;72.00;;;;;;4995810;28;20026;-66
2023/07/06 11:12:52;;;;;;;;;;;23.00;72.70;;;;;;4978211;28;20137;-65
2023/07/06 11:15:21;;;;;;;4.80;3.15;;;23.10;71.40;;;;;;4977586;28;19945;-66
2023/07/06 11:17:51;;;;;;;5.28;3.20;;;23.10;71.20;;;;;;4994027;28;20034;-67
2023/07/06 11:20:29;;;;;;;5.85;2.90;;;23.20;71.00;;;;;;4978193;28;20038;-66
2023/07/06 11:23:01;;;;;;;4.07;2.70;;;23.30;70.80;;;;;;4961596;28;20579;-66
2023/07/06 11:25:29;;;;;;;6.88;2.97;;;23.40;70.50;;;;;;4994127;28;20522;-66
2023/07/06 11:28:07;;;;;;;4.25;2.78;;;23.50;70.20;;;;;;4993874;28;20030;-66
2023/07/06 11:31:10;;;;;;;5.30;2.55;;;23.60;70.00;;;;;;4993949;28;20379;-66
2023/07/06 11:33:51;;;;;;;4.07;2.95;;;23.80;69.90;;;;;;4993787;28;20034;-66
2023/07/06 11:36:39;;;;;;;5.80;2.70;;;23.90;69.60;;;;;;4993865;28;20465;-66
2023/07/06 11:39:12;;;;;;;3.15;2.67;;;23.90;69.20;;;;;;4993746;28;20166;-66
2023/07/06 11:41:53;;;;;;;3.08;2.50;;;24.00;69.00;;;;;;4994389;28;20030;-65
2023/07/06 11:44:24;;;;;;;3.22;2.60;;;24.00;68.60;;;;;;4995170;28;20034;-66
2023/07/06 11:47:02;;;;;;;3.22;2.60;;;24.10;68.50;;;;;;4995543;28;20070;-66
2023/07/06 11:50:08;;;;;;;5.68;2.95;;;24.20;68.60;;;;;;4995611;28;20022;-68
2023/07/06 11:52:37;;;;;;;4.75;2.83;;;24.30;68.70;;;;;;4995451;28;20111;-68
2023/07/06 11:55:33;;;;;;;4.97;2.88;;;24.30;68.50;;;;;;4995166;28;20034;-66
2023/07/06 11:58:28;;;;;;;4.50;2.95;;;24.40;68.60;;;;;;4997748;28;20436;-67
2023/07/06 12:01:01;;;;;;;4.85;2.50;;;24.60;68.40;;;;;;4999100;28;20054;-67
2023/07/06 12:03:29;;;;;;;3.97;2.73;;;24.80;68.10;;;;;;4998868;28;20030;-67
2023/07/06 12:05:59;;;;;;;6.38;3.03;;;25.00;67.80;;;;;;4998689;28;20057;-66
2023/07/06 12:08:29;;;;;;;4.50;2.65;;;25.20;67.50;;;;;;4997811;28;20105;-67
2023/07/06 12:11:02;;;;;;;4.30;3.20;;;25.40;67.20;;;;;;4998882;28;20022;-67
2023/07/06 12:13:33;;;;;;;5.10;2.95;;;25.50;66.80;;;;;;4999206;28;20022;-67
2023/07/06 12:16:13;;;;;;;3.78;2.95;;;25.60;66.40;;;;;;4998776;28;20042;-67
2023/07/06 12:18:46;;;;;;;5.72;2.80;;;25.70;66.10;;;;;;4998864;28;20027;-67
2023/07/06 12:21:32;;;;;;;3.85;2.72;;;25.80;65.90;;;;;;4999103;28;20084;-67
2023/07/06 12:24:00;;;;;;;4.57;2.63;;;25.80;65.70;;;;;;4998670;28;20351;-67
2023/07/06 12:26:29;;;;;;;3.70;2.60;;;25.90;65.60;;;;;;4998686;28;20030;-68
2023/07/06 12:29:02;;;;;;;3.88;2.47;;;26.00;65.60;;;;;;4998615;28;20030;-67
2023/07/06 12:31:30;;;;;;;4.10;2.40;;;26.00;65.30;;;;;;4998872;28;20105;-67
2023/07/06 12:33:57;;;;;;;4.53;2.55;;;26.00;65.10;;;;;;4998227;28;20018;-67
2023/07/06 12:36:28;;;;;;;5.15;2.90;;;26.10;64.90;;;;;;4997944;28;20447;-67
2023/07/06 12:38:56;;;;;;;5.25;2.63;;;26.10;64.20;;;;;;4999041;28;20115;-66
2023/07/06 12:41:22;;;;;;;4.97;2.80;;;26.00;64.10;;;;;;4998680;28;20022;-67
2023/07/06 12:43:49;;;;;;;4.20;2.70;;;26.00;63.70;;;;;;4998526;28;20034;-67
2023/07/06 12:46:21;;;;;;;3.25;2.53;;;25.90;63.40;;;;;;4997463;28;20030;-67
2023/07/06 12:48:54;;;;;;;3.20;2.45;;;25.90;63.70;;;;;;4998270;28;20482;-67
2023/07/06 12:51:25;;;;;;;3.38;2.70;;;25.90;63.50;;;;;;4998801;28;20027;-67
2023/07/06 12:53:53;;;;;;;6.63;3.63;;;26.00;63.60;;;;;;4998599;28;20034;-67
2023/07/06 12:56:24;;;;;;;4.18;3.00;;;26.00;62.60;;;;;;4997604;28;20384;-67
2023/07/06 12:59:03;;;;;;;5.68;3.38;;;26.00;63.00;;;;;;4997019;28;20027;-67
2023/07/06 13:01:36;;;;;;;7.68;3.47;;;26.10;63.00;;;;;;4996365;28;20105;-66
2023/07/06 13:04:08;;;;;;;;;;;26.10;62.50;;;;;;4996749;28;20109;-68
2023/07/06 13:06:52;;;;;;;4.50;2.80;;;26.10;62.20;;;;;;4996786;28;19913;-67
2023/07/06 13:09:33;;;;;;;3.50;2.50;;;26.20;62.30;;;;;;4996902;28;20038;-66